sensor_id;sensor_type;location;lat;lon;timestamp;pressure;altitude;pressure_sealevel;temperature;humidity
8653;BME280;4364;52.426;9.424;2023-04-27T00:02:09;101446.50;;;5.45;80.25
8653;BME280;4364;52.426;9.424;2023-04-27T00:04:37;101445.38;;;5.52;80.23
8653;BME280;4364;52.426;9.424;2023-04-27T00:07:03;101445.44;;;5.46;80.85
8653;BME280;4364;52.426;9.424;2023-04-27T00:09:30;101457.03;;;5.46;81.01
8653;BME280;4364;52.426;9.424;2023-04-27T00:11:56;101449.66;;;5.42;80.82
8653;BME280;4364;52.426;9.424;2023-04-27T00:14:23;101452.78;;;5.38;81.23
8653;BME280;4364;52.426;9.424;2023-04-27T00:16:54;101455.94;;;5.35;81.79
8653;BME280;4364;52.426;9.424;2023-04-27T00:19:21;101453.44;;;5.34;81.63
8653;BME280;4364;52.426;9.424;2023-04-27T00:21:48;101449.09;;;5.33;81.64
8653;BME280;4364;52.426;9.424;2023-04-27T00:24:14;101453.06;;;5.30;81.68
8653;BME280;4364;52.426;9.424;2023-04-27T00:26:41;101459.28;;;5.31;81.30
8653;BME280;4364;52.426;9.424;2023-04-27T00:29:07;101454.41;;;5.21;82.09
8653;BME280;4364;52.426;9.424;2023-04-27T00:31:34;101455.47;;;5.20;82.05
8653;BME280;4364;52.426;9.424;2023-04-27T00:34:01;101452.19;;;5.18;81.44
8653;BME280;4364;52.426;9.424;2023-04-27T00:36:28;101450.78;;;5.09;81.84
8653;BME280;4364;52.426;9.424;2023-04-27T00:38:54;101452.31;;;5.05;81.74
8653;BME280;4364;52.426;9.424;2023-04-27T00:41:21;101447.28;;;5.08;80.53
8653;BME280;4364;52.426;9.424;2023-04-27T00:43:48;101454.44;;;4.96;79.62
8653;BME280;4364;52.426;9.424;2023-04-27T00:46:15;101449.31;;;4.88;79.26
8653;BME280;4364;52.426;9.424;2023-04-27T00:48:43;101456.41;;;4.82;79.46
8653;BME280;4364;52.426;9.424;2023-04-27T00:51:09;101454.94;;;4.86;79.30
8653;BME280;4364;52.426;9.424;2023-04-27T00:53:36;101458.13;;;4.76;78.73
8653;BME280;4364;52.426;9.424;2023-04-27T00:56:05;101458.41;;;4.68;79.67
8653;BME280;4364;52.426;9.424;2023-04-27T00:58:31;101461.53;;;4.65;79.91
8653;BME280;4364;52.426;9.424;2023-04-27T01:00:59;101460.13;;;4.56;80.31
8653;BME280;4364;52.426;9.424;2023-04-27T01:03:26;101457.28;;;4.51;80.66
8653;BME280;4364;52.426;9.424;2023-04-27T01:05:53;101451.28;;;4.49;81.27
8653;BME280;4364;52.426;9.424;2023-04-27T01:08:19;101455.69;;;4.43;81.38
8653;BME280;4364;52.426;9.424;2023-04-27T01:10:46;101456.75;;;4.35;81.63
8653;BME280;4364;52.426;9.424;2023-04-27T01:13:14;101453.47;;;4.33;81.91
8653;BME280;4364;52.426;9.424;2023-04-27T01:15:41;101458.47;;;4.30;82.29
8653;BME280;4364;52.426;9.424;2023-04-27T01:18:08;101467.56;;;4.29;82.19
8653;BME280;4364;52.426;9.424;2023-04-27T01:20:35;101467.19;;;4.25;82.63
8653;BME280;4364;52.426;9.424;2023-04-27T01:23:01;101463.88;;;4.23;82.43
8653;BME280;4364;52.426;9.424;2023-04-27T01:25:28;101477.59;;;4.15;81.84
8653;BME280;4364;52.426;9.424;2023-04-27T01:27:55;101477.44;;;4.03;82.64
8653;BME280;4364;52.426;9.424;2023-04-27T01:30:23;101479.31;;;3.96;82.71
8653;BME280;4364;52.426;9.424;2023-04-27T01:32:50;101481.00;;;3.90;83.06
8653;BME280;4364;52.426;9.424;2023-04-27T01:35:18;101484.75;;;3.82;83.07
8653;BME280;4364;52.426;9.424;2023-04-27T01:37:44;101494.09;;;3.80;83.30
8653;BME280;4364;52.426;9.424;2023-04-27T01:40:11;101492.84;;;3.76;83.50
8653;BME280;4364;52.426;9.424;2023-04-27T01:42:38;101492.44;;;3.79;83.07
8653;BME280;4364;52.426;9.424;2023-04-27T01:45:07;101501.56;;;3.71;83.55
8653;BME280;4364;52.426;9.424;2023-04-27T01:47:34;101498.44;;;3.74;83.09
8653;BME280;4364;52.426;9.424;2023-04-27T01:50:01;101500.72;;;3.70;83.11
8653;BME280;4364;52.426;9.424;2023-04-27T01:52:27;101516.47;;;3.67;83.26
8653;BME280;4364;52.426;9.424;2023-04-27T01:54:54;101515.06;;;3.58;83.31
8653;BME280;4364;52.426;9.424;2023-04-27T01:57:21;101521.25;;;3.58;83.12
8653;BME280;4364;52.426;9.424;2023-04-27T01:59:48;101526.66;;;3.51;83.03
8653;BME280;4364;52.426;9.424;2023-04-27T02:02:14;101531.84;;;3.40;83.80
8653;BME280;4364;52.426;9.424;2023-04-27T02:04:41;101531.63;;;3.34;83.46
8653;BME280;4364;52.426;9.424;2023-04-27T02:07:08;101537.00;;;3.28;83.91
8653;BME280;4364;52.426;9.424;2023-04-27T02:09:35;101538.84;;;3.27;84.28
8653;BME280;4364;52.426;9.424;2023-04-27T02:12:02;101538.25;;;3.19;84.26
8653;BME280;4364;52.426;9.424;2023-04-27T02:14:29;101533.91;;;3.18;84.70
8653;BME280;4364;52.426;9.424;2023-04-27T02:16:55;101537.84;;;3.22;84.24
8653;BME280;4364;52.426;9.424;2023-04-27T02:19:22;101539.72;;;3.14;83.97
8653;BME280;4364;52.426;9.424;2023-04-27T02:21:48;101536.63;;;3.18;83.79
8653;BME280;4364;52.426;9.424;2023-04-27T02:24:15;101542.59;;;3.13;84.29
8653;BME280;4364;52.426;9.424;2023-04-27T02:26:43;101540.53;;;3.15;83.97
8653;BME280;4364;52.426;9.424;2023-04-27T02:29:10;101537.84;;;3.08;83.99
8653;BME280;4364;52.426;9.424;2023-04-27T02:31:37;101539.28;;;3.04;84.22
8653;BME280;4364;52.426;9.424;2023-04-27T02:34:03;101544.88;;;3.09;84.17
8653;BME280;4364;52.426;9.424;2023-04-27T02:36:30;101540.13;;;3.05;84.29
8653;BME280;4364;52.426;9.424;2023-04-27T02:38:57;101539.09;;;2.99;84.04
8653;BME280;4364;52.426;9.424;2023-04-27T02:41:23;101537.22;;;3.00;84.27
8653;BME280;4364;52.426;9.424;2023-04-27T02:43:53;101534.13;;;3.03;84.03
8653;BME280;4364;52.426;9.424;2023-04-27T02:46:19;101534.94;;;2.96;84.21
8653;BME280;4364;52.426;9.424;2023-04-27T02:48:45;101534.13;;;3.03;84.10
8653;BME280;4364;52.426;9.424;2023-04-27T02:51:12;101538.66;;;2.95;83.57
8653;BME280;4364;52.426;9.424;2023-04-27T02:53:38;101537.84;;;2.95;84.15
8653;BME280;4364;52.426;9.424;2023-04-27T02:56:05;101527.28;;;3.00;84.15
8653;BME280;4364;52.426;9.424;2023-04-27T02:58:31;101531.84;;;3.06;83.98
8653;BME280;4364;52.426;9.424;2023-04-27T03:00:58;101521.50;;;2.96;83.86
8653;BME280;4364;52.426;9.424;2023-04-27T03:03:24;101529.56;;;2.90;84.57
8653;BME280;4364;52.426;9.424;2023-04-27T03:05:51;101526.06;;;2.89;84.72
8653;BME280;4364;52.426;9.424;2023-04-27T03:08:18;101536.59;;;2.84;84.30
8653;BME280;4364;52.426;9.424;2023-04-27T03:10:44;101529.56;;;2.83;84.83
8653;BME280;4364;52.426;9.424;2023-04-27T03:13:13;101534.09;;;2.76;85.33
8653;BME280;4364;52.426;9.424;2023-04-27T03:15:42;101536.56;;;2.64;86.01
8653;BME280;4364;52.426;9.424;2023-04-27T03:18:08;101534.28;;;2.68;85.88
8653;BME280;4364;52.426;9.424;2023-04-27T03:20:35;101530.53;;;2.62;86.13
8653;BME280;4364;52.426;9.424;2023-04-27T03:23:01;101535.91;;;2.62;86.04
8653;BME280;4364;52.426;9.424;2023-04-27T03:25:28;101532.41;;;2.55;86.47
8653;BME280;4364;52.426;9.424;2023-04-27T03:27:54;101528.66;;;2.43;86.69
8653;BME280;4364;52.426;9.424;2023-04-27T03:30:21;101531.13;;;2.37;87.47
8653;BME280;4364;52.426;9.424;2023-04-27T03:32:48;101540.56;;;2.27;87.93
8653;BME280;4364;52.426;9.424;2023-04-27T03:35:14;101546.72;;;2.20;88.25
8653;BME280;4364;52.426;9.424;2023-04-27T03:37:41;101541.63;;;2.26;87.80
8653;BME280;4364;52.426;9.424;2023-04-27T03:40:08;101539.34;;;2.22;87.96
8653;BME280;4364;52.426;9.424;2023-04-27T03:42:35;101539.34;;;2.22;88.27
8653;BME280;4364;52.426;9.424;2023-04-27T03:45:01;101543.44;;;2.25;88.22
8653;BME280;4364;52.426;9.424;2023-04-27T03:47:28;101547.81;;;2.26;88.01
8653;BME280;4364;52.426;9.424;2023-04-27T03:49:55;101551.34;;;2.33;88.12
8653;BME280;4364;52.426;9.424;2023-04-27T03:52:22;101552.81;;;2.36;87.78
8653;BME280;4364;52.426;9.424;2023-04-27T03:54:49;101554.44;;;2.37;87.63
8653;BME280;4364;52.426;9.424;2023-04-27T03:57:16;101547.59;;;2.28;87.70
8653;BME280;4364;52.426;9.424;2023-04-27T03:59:43;101542.19;;;2.14;88.45
8653;BME280;4364;52.426;9.424;2023-04-27T04:02:09;101550.03;;;2.16;88.69
8653;BME280;4364;52.426;9.424;2023-04-27T04:04:37;101545.69;;;2.15;88.34
8653;BME280;4364;52.426;9.424;2023-04-27T04:07:04;101547.34;;;2.16;88.50
8653;BME280;4364;52.426;9.424;2023-04-27T04:09:31;101554.34;;;2.17;88.51
8653;BME280;4364;52.426;9.424;2023-04-27T04:11:57;101553.13;;;2.13;88.82
8653;BME280;4364;52.426;9.424;2023-04-27T04:14:26;101559.50;;;2.12;88.85
8653;BME280;4364;52.426;9.424;2023-04-27T04:16:53;101557.63;;;2.06;89.05
8653;BME280;4364;52.426;9.424;2023-04-27T04:19:20;101558.84;;;2.03;89.51
8653;BME280;4364;52.426;9.424;2023-04-27T04:21:47;101555.13;;;1.97;89.30
8653;BME280;4364;52.426;9.424;2023-04-27T04:24:16;101556.53;;;1.93;89.33
8653;BME280;4364;52.426;9.424;2023-04-27T04:26:42;101558.38;;;1.93;89.80
8653;BME280;4364;52.426;9.424;2023-04-27T04:29:09;101555.31;;;1.96;89.81
8653;BME280;4364;52.426;9.424;2023-04-27T04:31:36;101549.75;;;1.97;89.44
8653;BME280;4364;52.426;9.424;2023-04-27T04:34:03;101549.75;;;1.97;89.79
8653;BME280;4364;52.426;9.424;2023-04-27T04:36:30;101557.63;;;2.06;89.87
8653;BME280;4364;52.426;9.424;2023-04-27T04:38:57;101559.28;;;2.07;89.09
8653;BME280;4364;52.426;9.424;2023-04-27T04:41:25;101560.91;;;2.01;89.55
8653;BME280;4364;52.426;9.424;2023-04-27T04:43:52;101561.94;;;2.07;89.12
8653;BME280;4364;52.426;9.424;2023-04-27T04:46:18;101568.63;;;2.17;89.12
8653;BME280;4364;52.426;9.424;2023-04-27T04:48:45;101560.13;;;2.14;89.09
8653;BME280;4364;52.426;9.424;2023-04-27T04:51:12;101565.13;;;2.23;89.14
8653;BME280;4364;52.426;9.424;2023-04-27T04:53:39;101567.03;;;2.36;88.69
8653;BME280;4364;52.426;9.424;2023-04-27T04:56:10;101573.22;;;2.37;88.28
8653;BME280;4364;52.426;9.424;2023-04-27T04:58:36;101565.78;;;2.26;88.77
8653;BME280;4364;52.426;9.424;2023-04-27T05:01:04;101577.31;;;2.26;88.88
8653;BME280;4364;52.426;9.424;2023-04-27T05:03:31;101576.34;;;2.40;88.43
8653;BME280;4364;52.426;9.424;2023-04-27T05:05:58;101582.38;;;2.49;88.32
8653;BME280;4364;52.426;9.424;2023-04-27T05:08:24;101580.53;;;2.56;88.49
8653;BME280;4364;52.426;9.424;2023-04-27T05:10:52;101584.69;;;2.59;88.43
8653;BME280;4364;52.426;9.424;2023-04-27T05:13:19;101578.47;;;2.58;88.32
8653;BME280;4364;52.426;9.424;2023-04-27T05:15:46;101584.44;;;2.60;88.08
8653;BME280;4364;52.426;9.424;2023-04-27T05:18:13;101580.16;;;2.66;88.04
8653;BME280;4364;52.426;9.424;2023-04-27T05:20:40;101580.16;;;2.73;88.52
8653;BME280;4364;52.426;9.424;2023-04-27T05:23:06;101588.63;;;2.70;87.87
8653;BME280;4364;52.426;9.424;2023-04-27T05:25:33;101581.41;;;2.77;87.93
8653;BME280;4364;52.426;9.424;2023-04-27T05:28:01;101587.38;;;2.66;88.39
8653;BME280;4364;52.426;9.424;2023-04-27T05:30:27;101598.13;;;2.66;88.36
8653;BME280;4364;52.426;9.424;2023-04-27T05:32:54;101597.69;;;2.69;88.74
8653;BME280;4364;52.426;9.424;2023-04-27T05:35:20;101601.25;;;2.76;88.41
8653;BME280;4364;52.426;9.424;2023-04-27T05:37:47;101605.75;;;2.69;89.06
8653;BME280;4364;52.426;9.424;2023-04-27T05:40:14;101607.84;;;2.73;88.95
8653;BME280;4364;52.426;9.424;2023-04-27T05:42:40;101598.59;;;2.83;88.44
8653;BME280;4364;52.426;9.424;2023-04-27T05:45:07;101608.50;;;2.89;88.78
8653;BME280;4364;52.426;9.424;2023-04-27T05:47:33;101607.28;;;2.91;88.52
8653;BME280;4364;52.426;9.424;2023-04-27T05:50:01;101603.81;;;3.11;88.00
8653;BME280;4364;52.426;9.424;2023-04-27T05:52:27;101612.88;;;3.10;87.80
8653;BME280;4364;52.426;9.424;2023-04-27T05:54:56;101606.91;;;3.21;87.39
8653;BME280;4364;52.426;9.424;2023-04-27T05:57:27;101610.81;;;3.25;86.79
8653;BME280;4364;52.426;9.424;2023-04-27T05:59:54;101607.53;;;3.23;86.11
8653;BME280;4364;52.426;9.424;2023-04-27T06:02:21;101615.19;;;3.26;86.63
8653;BME280;4364;52.426;9.424;2023-04-27T06:04:48;101616.00;;;3.27;86.44
8653;BME280;4364;52.426;9.424;2023-04-27T06:07:14;101618.28;;;3.43;85.92
8653;BME280;4364;52.426;9.424;2023-04-27T06:09:41;101621.78;;;3.44;85.96
8653;BME280;4364;52.426;9.424;2023-04-27T06:12:08;101624.28;;;3.45;85.72
8653;BME280;4364;52.426;9.424;2023-04-27T06:14:35;101625.13;;;3.39;86.02
8653;BME280;4364;52.426;9.424;2023-04-27T06:17:02;101632.97;;;3.47;85.95
8653;BME280;4364;52.426;9.424;2023-04-27T06:19:29;101628.84;;;3.51;86.01
8653;BME280;4364;52.426;9.424;2023-04-27T06:21:56;101639.78;;;3.63;86.06
8653;BME280;4364;52.426;9.424;2023-04-27T06:24:23;101637.94;;;3.64;85.84
8653;BME280;4364;52.426;9.424;2023-04-27T06:26:49;101639.78;;;3.70;85.77
8653;BME280;4364;52.426;9.424;2023-04-27T06:29:16;101643.28;;;3.77;85.34
8653;BME280;4364;52.426;9.424;2023-04-27T06:31:42;101641.25;;;3.86;85.45
8653;BME280;4364;52.426;9.424;2023-04-27T06:34:09;101637.06;;;3.97;85.46
8653;BME280;4364;52.426;9.424;2023-04-27T06:36:35;101641.78;;;4.21;85.28
8653;BME280;4364;52.426;9.424;2023-04-27T06:39:02;101649.66;;;4.16;82.93
8653;BME280;4364;52.426;9.424;2023-04-27T06:41:28;101645.31;;;4.15;83.03
8653;BME280;4364;52.426;9.424;2023-04-27T06:43:55;101651.28;;;4.24;82.53
8653;BME280;4364;52.426;9.424;2023-04-27T06:46:24;101640.72;;;4.29;82.28
8653;BME280;4364;52.426;9.424;2023-04-27T06:48:51;101648.56;;;4.31;82.42
8653;BME280;4364;52.426;9.424;2023-04-27T06:51:18;101652.50;;;4.41;81.82
8653;BME280;4364;52.426;9.424;2023-04-27T06:53:44;101653.47;;;4.54;81.68
8653;BME280;4364;52.426;9.424;2023-04-27T06:56:11;101648.69;;;4.56;81.25
8653;BME280;4364;52.426;9.424;2023-04-27T06:58:37;101644.53;;;4.67;80.65
8653;BME280;4364;52.426;9.424;2023-04-27T07:01:04;101643.84;;;4.78;80.50
8653;BME280;4364;52.426;9.424;2023-04-27T07:03:33;101641.53;;;4.81;80.66
8653;BME280;4364;52.426;9.424;2023-04-27T07:06:01;101650.41;;;4.89;79.81
8653;BME280;4364;52.426;9.424;2023-04-27T07:08:28;101639.63;;;4.89;77.75
8653;BME280;4364;52.426;9.424;2023-04-27T07:10:54;101643.56;;;4.93;77.91
8653;BME280;4364;52.426;9.424;2023-04-27T07:13:21;101643.91;;;5.03;77.31
8653;BME280;4364;52.426;9.424;2023-04-27T07:15:53;101643.66;;;5.11;77.05
8653;BME280;4364;52.426;9.424;2023-04-27T07:18:20;101636.34;;;5.18;76.95
8653;BME280;4364;52.426;9.424;2023-04-27T07:20:46;101646.41;;;5.36;73.19
8653;BME280;4364;52.426;9.424;2023-04-27T07:23:12;101641.00;;;5.36;75.02
8653;BME280;4364;52.426;9.424;2023-04-27T07:25:39;101648.56;;;5.46;74.94
8653;BME280;4364;52.426;9.424;2023-04-27T07:28:06;101652.44;;;5.57;73.31
8653;BME280;4364;52.426;9.424;2023-04-27T07:30:32;101654.88;;;5.65;73.76
8653;BME280;4364;52.426;9.424;2023-04-27T07:33:02;101662.91;;;5.72;72.83
8653;BME280;4364;52.426;9.424;2023-04-27T07:35:28;101660.09;;;5.85;71.54
8653;BME280;4364;52.426;9.424;2023-04-27T07:37:55;101653.34;;;5.94;71.04
8653;BME280;4364;52.426;9.424;2023-04-27T07:40:21;101655.28;;;6.12;70.63
8653;BME280;4364;52.426;9.424;2023-04-27T07:42:49;101644.50;;;6.31;69.85
8653;BME280;4364;52.426;9.424;2023-04-27T07:45:16;101652.66;;;6.61;66.39
8653;BME280;4364;52.426;9.424;2023-04-27T07:47:43;101656.41;;;6.79;63.98
8653;BME280;4364;52.426;9.424;2023-04-27T07:50:09;101653.16;;;6.89;63.28
8653;BME280;4364;52.426;9.424;2023-04-27T07:52:36;101645.91;;;7.01;61.70
8653;BME280;4364;52.426;9.424;2023-04-27T07:55:02;101639.69;;;7.00;61.51
8653;BME280;4364;52.426;9.424;2023-04-27T07:57:30;101647.78;;;7.00;60.29
8653;BME280;4364;52.426;9.424;2023-04-27T07:59:57;101641.88;;;6.92;61.15
8653;BME280;4364;52.426;9.424;2023-04-27T08:02:25;101644.53;;;7.10;60.43
8653;BME280;4364;52.426;9.424;2023-04-27T08:04:52;101651.25;;;7.19;59.19
8653;BME280;4364;52.426;9.424;2023-04-27T08:07:19;101641.69;;;7.05;58.67
8653;BME280;4364;52.426;9.424;2023-04-27T08:09:46;101648.19;;;7.16;57.85
8653;BME280;4364;52.426;9.424;2023-04-27T08:12:12;101637.72;;;7.19;59.22
8653;BME280;4364;52.426;9.424;2023-04-27T08:14:39;101636.50;;;7.46;59.16
8653;BME280;4364;52.426;9.424;2023-04-27T08:17:05;101632.03;;;7.63;58.86
8653;BME280;4364;52.426;9.424;2023-04-27T08:19:32;101637.22;;;7.76;58.66
8653;BME280;4364;52.426;9.424;2023-04-27T08:21:59;101635.13;;;7.90;58.24
8653;BME280;4364;52.426;9.424;2023-04-27T08:24:26;101649.13;;;7.87;56.28
8653;BME280;4364;52.426;9.424;2023-04-27T08:26:52;101633.09;;;7.86;56.32
8653;BME280;4364;52.426;9.424;2023-04-27T08:29:19;101636.50;;;7.93;58.26
8653;BME280;4364;52.426;9.424;2023-04-27T08:31:58;101633.91;;;8.10;55.42
8653;BME280;4364;52.426;9.424;2023-04-27T08:34:26;101636.84;;;8.32;54.16
8653;BME280;4364;52.426;9.424;2023-04-27T08:36:53;101642.13;;;8.27;53.21
8653;BME280;4364;52.426;9.424;2023-04-27T08:39:20;101633.75;;;8.28;51.94
8653;BME280;4364;52.426;9.424;2023-04-27T08:41:46;101625.63;;;8.28;52.50
8653;BME280;4364;52.426;9.424;2023-04-27T08:44:13;101636.69;;;8.50;53.32
8653;BME280;4364;52.426;9.424;2023-04-27T08:46:40;101634.63;;;8.69;52.75
8653;BME280;4364;52.426;9.424;2023-04-27T08:49:06;101629.25;;;8.86;51.90
8653;BME280;4364;52.426;9.424;2023-04-27T08:51:33;101627.91;;;8.72;52.07
8653;BME280;4364;52.426;9.424;2023-04-27T08:54:00;101631.63;;;8.83;51.77
8653;BME280;4364;52.426;9.424;2023-04-27T08:56:28;101637.47;;;8.63;52.10
8653;BME280;4364;52.426;9.424;2023-04-27T08:58:56;101627.16;;;8.77;51.96
8653;BME280;4364;52.426;9.424;2023-04-27T09:01:23;101625.94;;;9.13;51.70
8653;BME280;4364;52.426;9.424;2023-04-27T09:03:55;101623.94;;;9.08;52.04
8653;BME280;4364;52.426;9.424;2023-04-27T09:06:33;101627.59;;;9.14;53.11
8653;BME280;4364;52.426;9.424;2023-04-27T09:09:01;101630.72;;;8.77;52.17
8653;BME280;4364;52.426;9.424;2023-04-27T09:11:35;101623.91;;;8.63;51.54
8653;BME280;4364;52.426;9.424;2023-04-27T09:14:19;101626.06;;;8.89;51.06
8653;BME280;4364;52.426;9.424;2023-04-27T09:16:53;101628.38;;;8.98;49.30
8653;BME280;4364;52.426;9.424;2023-04-27T09:19:25;101622.56;;;9.06;47.22
8653;BME280;4364;52.426;9.424;2023-04-27T09:22:05;101628.47;;;9.03;47.59
8653;BME280;4364;52.426;9.424;2023-04-27T09:24:32;101617.47;;;9.43;47.61
8653;BME280;4364;52.426;9.424;2023-04-27T09:26:59;101630.28;;;9.82;45.82
8653;BME280;4364;52.426;9.424;2023-04-27T09:29:31;101624.25;;;9.97;45.30
8653;BME280;4364;52.426;9.424;2023-04-27T09:31:58;101629.41;;;10.15;44.58
8653;BME280;4364;52.426;9.424;2023-04-27T09:34:25;101630.25;;;10.16;42.21
8653;BME280;4364;52.426;9.424;2023-04-27T09:36:51;101622.84;;;10.11;42.89
8653;BME280;4364;52.426;9.424;2023-04-27T09:39:18;101623.97;;;10.32;41.01
8653;BME280;4364;52.426;9.424;2023-04-27T09:41:45;101621.19;;;10.49;41.15
8653;BME280;4364;52.426;9.424;2023-04-27T09:44:14;101632.13;;;10.54;42.75
8653;BME280;4364;52.426;9.424;2023-04-27T09:46:41;101623.06;;;10.49;42.76
8653;BME280;4364;52.426;9.424;2023-04-27T09:49:11;101622.16;;;10.65;40.05
8653;BME280;4364;52.426;9.424;2023-04-27T09:51:39;101613.66;;;10.56;39.70
8653;BME280;4364;52.426;9.424;2023-04-27T09:54:06;101608.41;;;10.50;39.93
8653;BME280;4364;52.426;9.424;2023-04-27T09:56:48;101616.50;;;10.45;40.78
8653;BME280;4364;52.426;9.424;2023-04-27T10:02:09;101616.69;;;10.60;39.24
8653;BME280;4364;52.426;9.424;2023-04-27T10:05:20;101611.03;;;10.94;37.56
8653;BME280;4364;52.426;9.424;2023-04-27T10:08:15;101615.09;;;11.19;38.52
8653;BME280;4364;52.426;9.424;2023-04-27T10:10:49;101613.66;;;11.43;37.75
8653;BME280;4364;52.426;9.424;2023-04-27T10:13:25;101607.88;;;11.35;38.40
8653;BME280;4364;52.426;9.424;2023-04-27T10:15:52;101602.94;;;11.31;38.11
8653;BME280;4364;52.426;9.424;2023-04-27T10:18:29;101603.63;;;11.17;39.58
8653;BME280;4364;52.426;9.424;2023-04-27T10:21:08;101609.75;;;11.34;39.03
8653;BME280;4364;52.426;9.424;2023-04-27T10:23:44;101615.09;;;11.19;39.12
8653;BME280;4364;52.426;9.424;2023-04-27T10:26:11;101612.53;;;11.39;39.11
8653;BME280;4364;52.426;9.424;2023-04-27T10:28:37;101617.34;;;11.27;39.14
8653;BME280;4364;52.426;9.424;2023-04-27T10:31:09;101611.25;;;11.47;39.73
8653;BME280;4364;52.426;9.424;2023-04-27T10:33:41;101616.09;;;11.82;37.89
8653;BME280;4364;52.426;9.424;2023-04-27T10:36:13;101615.69;;;12.01;38.75
8653;BME280;4364;52.426;9.424;2023-04-27T10:38:41;101613.31;;;12.10;36.97
8653;BME280;4364;52.426;9.424;2023-04-27T10:41:13;101600.59;;;12.31;38.12
8653;BME280;4364;52.426;9.424;2023-04-27T10:43:39;101597.56;;;12.27;39.09
8653;BME280;4364;52.426;9.424;2023-04-27T10:46:14;101602.56;;;12.46;35.64
8653;BME280;4364;52.426;9.424;2023-04-27T10:48:42;101604.00;;;12.05;37.15
8653;BME280;4364;52.426;9.424;2023-04-27T10:51:09;101606.44;;;11.97;36.80
8653;BME280;4364;52.426;9.424;2023-04-27T10:53:36;101608.31;;;11.91;35.78
8653;BME280;4364;52.426;9.424;2023-04-27T10:56:03;101598.81;;;11.99;35.51
8653;BME280;4364;52.426;9.424;2023-04-27T10:58:33;101604.66;;;11.80;35.46
8653;BME280;4364;52.426;9.424;2023-04-27T11:01:23;101601.75;;;11.92;34.79
8653;BME280;4364;52.426;9.424;2023-04-27T11:03:57;101595.94;;;11.78;35.40
8653;BME280;4364;52.426;9.424;2023-04-27T11:06:24;101587.50;;;11.80;35.25
8653;BME280;4364;52.426;9.424;2023-04-27T11:08:51;101586.53;;;11.59;35.77
8653;BME280;4364;52.426;9.424;2023-04-27T11:11:17;101591.69;;;11.18;35.92
8653;BME280;4364;52.426;9.424;2023-04-27T11:13:47;101594.44;;;11.23;36.87
8653;BME280;4364;52.426;9.424;2023-04-27T11:16:14;101586.84;;;11.67;36.70
8653;BME280;4364;52.426;9.424;2023-04-27T11:18:41;101590.78;;;12.30;36.00
8653;BME280;4364;52.426;9.424;2023-04-27T11:21:11;101588.44;;;12.79;34.88
8653;BME280;4364;52.426;9.424;2023-04-27T11:23:38;101600.22;;;12.85;34.55
8653;BME280;4364;52.426;9.424;2023-04-27T11:26:15;101598.50;;;12.58;35.86
8653;BME280;4364;52.426;9.424;2023-04-27T11:29:00;101591.03;;;12.23;36.29
8653;BME280;4364;52.426;9.424;2023-04-27T11:31:38;101590.25;;;11.47;36.74
8653;BME280;4364;52.426;9.424;2023-04-27T11:34:06;101587.38;;;11.27;37.00
8653;BME280;4364;52.426;9.424;2023-04-27T11:36:33;101600.63;;;11.13;38.07
8653;BME280;4364;52.426;9.424;2023-04-27T11:38:59;101590.06;;;10.89;37.88
8653;BME280;4364;52.426;9.424;2023-04-27T11:41:36;101593.50;;;10.80;38.66
8653;BME280;4364;52.426;9.424;2023-04-27T11:44:07;101588.88;;;10.80;39.01
8653;BME280;4364;52.426;9.424;2023-04-27T11:46:35;101584.84;;;10.61;39.43
8653;BME280;4364;52.426;9.424;2023-04-27T11:49:03;101593.59;;;10.41;38.90
8653;BME280;4364;52.426;9.424;2023-04-27T11:51:31;101573.22;;;10.65;38.98
8653;BME280;4364;52.426;9.424;2023-04-27T11:54:05;101571.59;;;11.29;38.70
8653;BME280;4364;52.426;9.424;2023-04-27T11:56:40;101571.59;;;12.14;37.21
8653;BME280;4364;52.426;9.424;2023-04-27T11:59:20;101563.28;;;12.47;35.77
8653;BME280;4364;52.426;9.424;2023-04-27T12:01:47;101567.41;;;12.59;36.12
8653;BME280;4364;52.426;9.424;2023-04-27T12:04:13;101562.53;;;12.97;36.46
8653;BME280;4364;52.426;9.424;2023-04-27T12:06:41;101566.13;;;13.13;35.80
8653;BME280;4364;52.426;9.424;2023-04-27T12:09:07;101568.53;;;12.84;34.42
8653;BME280;4364;52.426;9.424;2023-04-27T12:11:34;101566.06;;;12.67;34.52
8653;BME280;4364;52.426;9.424;2023-04-27T12:14:02;101571.78;;;12.76;35.88
8653;BME280;4364;52.426;9.424;2023-04-27T12:16:28;101568.31;;;13.27;35.33
8653;BME280;4364;52.426;9.424;2023-04-27T12:18:55;101557.91;;;13.44;34.08
8653;BME280;4364;52.426;9.424;2023-04-27T12:21:21;101565.00;;;13.66;34.92
8653;BME280;4364;52.426;9.424;2023-04-27T12:23:48;101566.81;;;14.01;33.88
8653;BME280;4364;52.426;9.424;2023-04-27T12:26:14;101564.56;;;14.19;32.80
8653;BME280;4364;52.426;9.424;2023-04-27T12:28:41;101566.47;;;14.23;32.83
8653;BME280;4364;52.426;9.424;2023-04-27T12:31:07;101558.59;;;14.56;31.97
8653;BME280;4364;52.426;9.424;2023-04-27T12:33:34;101558.81;;;14.75;31.95
8653;BME280;4364;52.426;9.424;2023-04-27T12:36:01;101559.91;;;14.74;31.17
8653;BME280;4364;52.426;9.424;2023-04-27T12:38:27;101558.97;;;14.39;31.83
8653;BME280;4364;52.426;9.424;2023-04-27T12:40:54;101554.25;;;14.60;31.38
8653;BME280;4364;52.426;9.424;2023-04-27T12:43:21;101553.53;;;14.34;30.73
8653;BME280;4364;52.426;9.424;2023-04-27T12:45:47;101556.94;;;14.11;31.07
8653;BME280;4364;52.426;9.424;2023-04-27T12:48:14;101557.59;;;13.77;31.79
8653;BME280;4364;52.426;9.424;2023-04-27T12:50:43;101550.75;;;13.74;31.78
8653;BME280;4364;52.426;9.424;2023-04-27T12:53:09;101548.25;;;13.88;33.07
8653;BME280;4364;52.426;9.424;2023-04-27T12:55:35;101556.81;;;13.61;33.06
8653;BME280;4364;52.426;9.424;2023-04-27T12:58:02;101553.75;;;13.83;32.62
8653;BME280;4364;52.426;9.424;2023-04-27T13:00:30;101549.13;;;13.63;32.07
8653;BME280;4364;52.426;9.424;2023-04-27T13:02:56;101550.28;;;13.41;32.39
8653;BME280;4364;52.426;9.424;2023-04-27T13:05:24;101552.69;;;13.74;33.06
8653;BME280;4364;52.426;9.424;2023-04-27T13:07:51;101555.16;;;13.70;31.69
8653;BME280;4364;52.426;9.424;2023-04-27T13:10:17;101556.22;;;13.74;31.87
8653;BME280;4364;52.426;9.424;2023-04-27T13:12:44;101548.31;;;13.67;32.52
8653;BME280;4364;52.426;9.424;2023-04-27T13:15:11;101546.47;;;13.32;31.84
8653;BME280;4364;52.426;9.424;2023-04-27T13:17:37;101548.34;;;12.95;33.31
8653;BME280;4364;52.426;9.424;2023-04-27T13:20:06;101547.00;;;13.34;32.64
8653;BME280;4364;52.426;9.424;2023-04-27T13:22:34;101533.59;;;13.27;32.95
8653;BME280;4364;52.426;9.424;2023-04-27T13:25:01;101549.47;;;13.10;33.78
8653;BME280;4364;52.426;9.424;2023-04-27T13:27:27;101547.81;;;13.09;32.75